createdAt,value
2019-05-19T00:01:36.931Z,13.60
2019-05-19T00:04:03.010Z,11.80
2019-05-19T00:06:29.003Z,11.93
2019-05-19T00:08:55.026Z,12.20
2019-05-19T00:11:21.004Z,13.67
2019-05-19T00:13:46.865Z,10.60
2019-05-19T00:16:12.720Z,26.37
2019-05-19T00:18:38.565Z,12.40
2019-05-19T00:21:04.525Z,12.57
2019-05-19T00:23:30.551Z,11.23
2019-05-19T00:25:56.425Z,11.00
2019-05-19T00:28:22.288Z,13.97
2019-05-19T00:30:48.224Z,14.07
2019-05-19T00:33:14.094Z,12.73
2019-05-19T00:35:39.913Z,12.10
2019-05-19T00:38:05.855Z,15.70
2019-05-19T00:40:31.745Z,12.60
2019-05-19T00:42:57.707Z,12.17
2019-05-19T00:45:23.560Z,11.97
2019-05-19T00:47:49.542Z,11.90
2019-05-19T00:50:15.600Z,12.20
2019-05-19T00:52:41.434Z,12.90
2019-05-19T00:55:07.566Z,12.23
2019-05-19T00:57:34.917Z,14.57
2019-05-19T01:00:00.765Z,13.93
2019-05-19T01:02:26.726Z,14.10
2019-05-19T01:04:52.587Z,14.50
2019-05-19T01:07:18.534Z,15.57
2019-05-19T01:09:44.441Z,13.40
2019-05-19T01:12:10.397Z,14.77
2019-05-19T01:14:36.223Z,13.33
2019-05-19T01:17:02.507Z,14.13
2019-05-19T01:19:28.480Z,13.17
2019-05-19T01:21:54.521Z,13.57
2019-05-19T01:24:20.485Z,13.53
2019-05-19T01:26:46.306Z,13.07
2019-05-19T01:29:12.342Z,13.97
2019-05-19T01:31:38.397Z,12.53
2019-05-19T01:34:04.368Z,12.50
2019-05-19T01:36:30.316Z,12.50
2019-05-19T01:38:56.277Z,14.97
2019-05-19T01:41:22.155Z,12.47
2019-05-19T01:43:48.108Z,12.00
2019-05-19T01:46:14.053Z,12.37
2019-05-19T01:48:40.012Z,13.37
2019-05-19T01:51:05.846Z,11.60
2019-05-19T01:53:31.805Z,12.17
2019-05-19T01:55:57.639Z,10.70
2019-05-19T01:58:23.600Z,12.83
2019-05-19T02:00:49.523Z,11.40
2019-05-19T02:03:15.468Z,13.03
2019-05-19T02:05:41.306Z,10.87
2019-05-19T02:08:07.152Z,12.07
2019-05-19T02:10:33.110Z,9.30
2019-05-19T02:12:58.956Z,12.57
2019-05-19T02:15:25.004Z,11.73
2019-05-19T02:17:51.142Z,11.23
2019-05-19T02:20:30.572Z,10.90
2019-05-19T02:22:45.266Z,10.53
2019-05-19T02:25:11.529Z,12.47
2019-05-19T02:27:37.469Z,10.50
2019-05-19T02:30:05.544Z,11.73
2019-05-19T02:32:31.371Z,12.80
2019-05-19T02:34:57.245Z,13.80
2019-05-19T02:37:23.097Z,14.10
2019-05-19T02:39:49.049Z,11.80
2019-05-19T02:42:14.996Z,12.37
2019-05-19T02:44:41.429Z,11.60
2019-05-19T02:47:08.098Z,10.83
2019-05-19T02:49:34.093Z,12.43
2019-05-19T02:52:01.947Z,10.57
2019-05-19T02:54:28.625Z,11.57
2019-05-19T02:56:54.667Z,10.63
2019-05-19T02:59:21.422Z,12.70
2019-05-19T03:02:01.241Z,16.17
2019-05-19T03:04:27.124Z,9.90
2019-05-19T03:06:52.964Z,12.10
2019-05-19T03:09:18.900Z,11.63
2019-05-19T03:11:44.852Z,11.87
2019-05-19T03:14:10.662Z,12.80
2019-05-19T03:16:36.538Z,11.80
2019-05-19T03:19:02.489Z,10.80
2019-05-19T03:21:28.329Z,11.53
2019-05-19T03:23:54.263Z,13.93
2019-05-19T03:26:20.226Z,13.90
2019-05-19T03:28:46.060Z,13.93
2019-05-19T03:31:16.788Z,12.43
2019-05-19T03:33:44.555Z,12.80
2019-05-19T03:36:10.394Z,13.50
2019-05-19T03:38:36.241Z,11.87
2019-05-19T03:41:02.177Z,12.90
2019-05-19T03:43:28.017Z,12.97
2019-05-19T03:45:53.971Z,13.47
2019-05-19T03:48:19.810Z,11.20
2019-05-19T03:50:45.679Z,11.77
2019-05-19T03:53:11.526Z,11.37
2019-05-19T03:55:37.394Z,15.43
2019-05-19T03:58:03.352Z,12.80
2019-05-19T04:00:29.188Z,12.70
2019-05-19T04:02:55.031Z,15.70
2019-05-19T04:05:20.932Z,13.53
2019-05-19T04:07:46.742Z,15.80
2019-05-19T04:10:12.879Z,13.93
2019-05-19T04:12:38.759Z,15.30
2019-05-19T04:15:04.860Z,20.80
2019-05-19T04:17:30.844Z,14.27
2019-05-19T04:19:56.701Z,19.17
2019-05-19T04:22:22.530Z,21.83
2019-05-19T04:24:48.337Z,23.30
2019-05-19T04:27:14.188Z,20.80
2019-05-19T04:29:40.136Z,15.37
2019-05-19T04:32:06.095Z,16.07
2019-05-19T04:34:31.932Z,15.80
2019-05-19T04:36:57.778Z,16.70
2019-05-19T04:39:23.617Z,17.90
2019-05-19T04:41:49.562Z,15.63
2019-05-19T04:44:15.394Z,16.03
2019-05-19T04:46:41.259Z,16.03
2019-05-19T04:49:07.109Z,14.10
2019-05-19T04:51:33.065Z,15.73
2019-05-19T04:53:58.903Z,16.20
2019-05-19T04:56:24.975Z,13.67
2019-05-19T04:58:50.813Z,15.37
2019-05-19T05:01:16.751Z,15.60
2019-05-19T05:03:42.593Z,17.03
2019-05-19T05:06:08.571Z,15.53
2019-05-19T05:08:34.498Z,15.90
2019-05-19T05:11:00.366Z,17.00
2019-05-19T05:13:26.323Z,20.07
2019-05-19T05:15:52.263Z,16.83
2019-05-19T05:18:18.229Z,16.13
2019-05-19T05:20:44.048Z,15.87
2019-05-19T05:23:09.911Z,16.70
2019-05-19T05:25:35.741Z,15.40
2019-05-19T05:28:01.686Z,17.03
2019-05-19T05:30:27.530Z,16.27
2019-05-19T05:32:53.387Z,21.90
2019-05-19T05:35:19.320Z,21.63
2019-05-19T05:37:45.469Z,24.57
2019-05-19T05:40:11.690Z,26.47
2019-05-19T05:42:37.555Z,23.50
2019-05-19T05:45:06.299Z,28.73
2019-05-19T05:47:32.265Z,25.40
2019-05-19T05:49:58.195Z,26.47
2019-05-19T05:52:37.527Z,30.63
2019-05-19T05:54:51.893Z,28.77
2019-05-19T05:57:17.750Z,23.93
2019-05-19T05:59:43.686Z,25.03
2019-05-19T06:02:09.542Z,27.40
2019-05-19T06:04:35.469Z,28.90
2019-05-19T06:07:01.337Z,29.80
2019-05-19T06:09:27.176Z,28.03
2019-05-19T06:11:53.123Z,31.60
2019-05-19T06:14:19.052Z,28.03
2019-05-19T06:16:45.030Z,26.20
2019-05-19T06:19:10.870Z,26.83
2019-05-19T06:21:36.823Z,29.83
2019-05-19T06:24:03.864Z,29.60
2019-05-19T06:26:29.799Z,29.27
2019-05-19T06:28:55.668Z,26.90
2019-05-19T06:31:21.514Z,26.07
2019-05-19T06:33:47.415Z,26.13
2019-05-19T06:36:13.258Z,25.47
2019-05-19T06:38:39.171Z,29.43
2019-05-19T06:41:05.107Z,28.73
2019-05-19T06:43:31.317Z,24.63
2019-05-19T06:45:59.246Z,24.53
2019-05-19T06:48:25.225Z,26.73
2019-05-19T06:50:51.079Z,26.23
2019-05-19T06:53:16.950Z,26.40
2019-05-19T06:55:42.813Z,27.10
2019-05-19T06:58:08.671Z,25.43
2019-05-19T07:00:34.680Z,27.03
2019-05-19T07:03:00.558Z,27.67
2019-05-19T07:05:26.500Z,25.30
2019-05-19T07:07:52.352Z,25.97
2019-05-19T07:10:19.464Z,22.90
2019-05-19T07:12:45.336Z,22.20
2019-05-19T07:15:11.374Z,26.50
2019-05-19T07:17:37.261Z,25.23
2019-05-19T07:20:04.297Z,23.70
2019-05-19T07:22:30.143Z,25.57
2019-05-19T07:24:55.978Z,23.87
2019-05-19T07:27:21.820Z,24.50
2019-05-19T07:29:47.703Z,24.67
2019-05-19T07:32:13.563Z,27.17
2019-05-19T07:34:39.542Z,24.40
2019-05-19T07:37:05.382Z,22.50
2019-05-19T07:39:31.233Z,24.70
2019-05-19T07:41:57.064Z,25.03
2019-05-19T07:44:22.924Z,22.33
2019-05-19T07:46:48.773Z,23.97
2019-05-19T07:49:14.629Z,21.57
2019-05-19T07:51:40.563Z,23.37
2019-05-19T07:54:06.416Z,21.40
2019-05-19T07:56:32.585Z,23.40
2019-05-19T07:58:58.565Z,22.60
2019-05-19T08:01:24.414Z,21.80
2019-05-19T08:03:50.276Z,22.70
2019-05-19T08:06:16.114Z,21.70
2019-05-19T08:08:41.979Z,22.40
2019-05-19T08:11:07.813Z,20.33
2019-05-19T08:13:33.685Z,22.07
2019-05-19T08:15:59.524Z,22.10
2019-05-19T08:18:25.427Z,21.67
2019-05-19T08:20:51.356Z,23.97
2019-05-19T08:23:17.196Z,22.13
2019-05-19T08:25:43.035Z,20.53
2019-05-19T08:28:09.303Z,20.63
2019-05-19T08:30:35.234Z,22.43
2019-05-19T08:33:01.065Z,22.67
2019-05-19T08:35:26.922Z,20.67
2019-05-19T08:37:52.756Z,19.63
2019-05-19T08:40:18.635Z,19.10
2019-05-19T08:42:44.534Z,21.03
2019-05-19T08:45:10.581Z,19.80
2019-05-19T08:47:36.431Z,19.30
2019-05-19T08:50:04.814Z,18.37
2019-05-19T08:52:30.636Z,18.43
2019-05-19T08:54:56.507Z,17.87
2019-05-19T08:57:22.379Z,16.80
2019-05-19T08:59:48.236Z,16.53
2019-05-19T09:02:14.083Z,16.10
2019-05-19T09:04:39.931Z,16.40
2019-05-19T09:07:05.873Z,16.80
2019-05-19T09:09:31.754Z,16.73
2019-05-19T09:11:57.620Z,16.10
2019-05-19T09:14:23.478Z,16.10
2019-05-19T09:16:51.873Z,15.33
2019-05-19T09:19:17.714Z,15.67
2019-05-19T09:21:43.571Z,16.77
2019-05-19T09:24:09.440Z,14.77
2019-05-19T09:26:35.323Z,13.33
2019-05-19T09:29:01.693Z,14.87
2019-05-19T09:31:27.662Z,15.07
2019-05-19T09:33:53.523Z,14.63
2019-05-19T09:36:19.402Z,13.23
2019-05-19T09:38:45.258Z,14.90
2019-05-19T09:41:11.126Z,11.20
2019-05-19T09:43:37.317Z,12.67
2019-05-19T09:46:03.175Z,12.80
2019-05-19T09:48:29.043Z,13.63
2019-05-19T09:50:55.071Z,12.77
2019-05-19T09:53:21.026Z,12.10
2019-05-19T09:55:46.998Z,12.93
2019-05-19T09:58:17.093Z,13.07
2019-05-19T10:00:41.955Z,13.20
2019-05-19T10:03:07.929Z,13.67
2019-05-19T10:05:33.868Z,11.93
2019-05-19T10:07:59.740Z,13.53
2019-05-19T10:10:33.153Z,13.07
2019-05-19T10:12:59.094Z,14.90
2019-05-19T10:15:24.994Z,13.87
2019-05-19T10:17:50.871Z,13.83
2019-05-19T10:20:17.388Z,13.30
2019-05-19T10:22:43.360Z,13.33
2019-05-19T10:25:21.733Z,13.03
2019-05-19T10:27:37.669Z,12.90
2019-05-19T10:30:06.863Z,11.53
2019-05-19T10:32:32.977Z,10.83
2019-05-19T10:34:58.804Z,9.57
2019-05-19T10:37:24.680Z,10.83
2019-05-19T10:39:50.533Z,9.77
2019-05-19T10:42:16.776Z,11.40
2019-05-19T10:44:44.626Z,10.87
2019-05-19T10:47:10.526Z,12.13
2019-05-19T10:49:36.366Z,10.00
2019-05-19T10:52:02.688Z,8.63
2019-05-19T10:54:28.539Z,9.00
2019-05-19T10:56:54.514Z,10.97
2019-05-19T10:59:20.543Z,9.80
2019-05-19T11:01:49.710Z,9.53
2019-05-19T11:04:15.561Z,8.47
2019-05-19T11:06:41.411Z,8.77
2019-05-19T11:09:07.463Z,9.50
2019-05-19T11:11:33.493Z,10.60
2019-05-19T11:13:59.349Z,10.27
2019-05-19T11:16:27.217Z,8.67
2019-05-19T11:18:54.341Z,8.77
2019-05-19T11:21:21.807Z,12.13
2019-05-19T11:23:47.677Z,10.60
2019-05-19T11:26:13.532Z,11.10
2019-05-19T11:28:39.522Z,11.37
2019-05-19T11:31:05.379Z,11.57
2019-05-19T11:33:31.281Z,11.47
2019-05-19T11:35:57.111Z,11.17
2019-05-19T11:38:22.997Z,12.40
2019-05-19T11:40:49.166Z,12.10
2019-05-19T11:43:15.019Z,12.87
2019-05-19T11:45:40.883Z,12.20
2019-05-19T11:48:06.729Z,11.50
2019-05-19T11:50:34.776Z,12.17
2019-05-19T11:53:00.743Z,13.10
2019-05-19T11:55:32.019Z,11.30
2019-05-19T11:57:57.861Z,12.67
2019-05-19T12:00:25.074Z,12.17
2019-05-19T12:02:51.013Z,12.10
2019-05-19T12:05:16.960Z,11.37
2019-05-19T12:07:42.861Z,11.67
2019-05-19T12:10:09.073Z,11.83
2019-05-19T12:12:35.017Z,12.00
2019-05-19T12:15:01.759Z,10.60
2019-05-19T12:17:29.304Z,11.27
2019-05-19T12:19:55.188Z,10.23
2019-05-19T12:22:21.049Z,11.37
2019-05-19T12:24:46.898Z,10.90
2019-05-19T12:27:12.747Z,10.10
2019-05-19T12:29:38.772Z,9.70
2019-05-19T12:32:04.714Z,10.30
2019-05-19T12:34:30.599Z,10.40
2019-05-19T12:36:56.826Z,9.47
2019-05-19T12:39:22.703Z,10.63
2019-05-19T12:41:48.532Z,10.13
2019-05-19T12:44:14.525Z,10.20
2019-05-19T12:46:40.376Z,10.60
2019-05-19T12:49:08.418Z,11.37
2019-05-19T12:51:34.280Z,11.47
2019-05-19T12:54:00.112Z,10.50
2019-05-19T12:56:38.718Z,10.60
2019-05-19T12:58:54.845Z,10.30
2019-05-19T13:01:20.683Z,10.00
2019-05-19T13:03:46.565Z,9.43
2019-05-19T13:06:12.420Z,9.90
2019-05-19T13:08:39.052Z,10.80
2019-05-19T13:11:04.952Z,10.70
2019-05-19T13:13:30.870Z,10.40
2019-05-19T13:15:56.757Z,12.23
2019-05-19T13:18:23.359Z,9.87
2019-05-19T13:20:49.265Z,11.07
2019-05-19T13:23:15.222Z,10.43
2019-05-19T13:25:41.114Z,10.50
2019-05-19T13:28:07.053Z,9.80
2019-05-19T13:30:33.021Z,9.47
2019-05-19T13:32:58.899Z,10.43
2019-05-19T13:35:24.759Z,9.20
2019-05-19T13:37:50.656Z,8.00
2019-05-19T13:40:16.673Z,8.50
2019-05-19T13:42:42.555Z,8.63
2019-05-19T13:45:08.724Z,8.40
2019-05-19T13:47:34.564Z,8.20
2019-05-19T13:50:00.626Z,8.77
2019-05-19T13:52:26.492Z,8.10
2019-05-19T13:54:52.356Z,9.93
2019-05-19T13:57:18.626Z,8.30
2019-05-19T13:59:44.561Z,9.30
2019-05-19T14:02:10.505Z,9.10
2019-05-19T14:04:36.457Z,9.27
2019-05-19T14:07:02.378Z,7.90
2019-05-19T14:09:28.268Z,8.50
2019-05-19T14:11:54.146Z,8.73
2019-05-19T14:14:20.007Z,10.23
2019-05-19T14:16:45.871Z,8.80
2019-05-19T14:19:11.753Z,9.10
2019-05-19T14:21:37.614Z,8.70
2019-05-19T14:24:03.574Z,8.93
2019-05-19T14:26:29.452Z,10.63
2019-05-19T14:28:55.308Z,8.93
2019-05-19T14:31:21.205Z,8.90
2019-05-19T14:33:47.047Z,9.70
2019-05-19T14:36:12.953Z,9.50
2019-05-19T14:38:40.704Z,9.13
2019-05-19T14:41:06.584Z,8.23
2019-05-19T14:43:33.146Z,9.27
2019-05-19T14:46:02.307Z,8.40
2019-05-19T14:48:28.143Z,9.83
2019-05-19T14:50:55.953Z,8.43
2019-05-19T14:53:21.794Z,7.63
2019-05-19T14:55:47.631Z,9.60
2019-05-19T14:58:13.506Z,7.60
2019-05-19T15:00:39.370Z,7.70
2019-05-19T15:03:05.211Z,8.60
2019-05-19T15:05:31.275Z,9.67
2019-05-19T15:07:57.155Z,10.13
2019-05-19T15:10:23.035Z,9.03
2019-05-19T15:12:48.914Z,9.87
2019-05-19T15:15:15.084Z,8.87
2019-05-19T15:17:40.948Z,9.33
2019-05-19T15:20:07.127Z,10.10
2019-05-19T15:22:32.970Z,8.60
2019-05-19T15:24:58.877Z,9.13
2019-05-19T15:27:24.762Z,8.57
2019-05-19T15:29:50.688Z,9.20
2019-05-19T15:32:16.623Z,9.07
2019-05-19T15:34:42.526Z,9.67
2019-05-19T15:37:08.393Z,8.70
2019-05-19T15:39:34.254Z,8.70
2019-05-19T15:42:00.144Z,8.33
2019-05-19T15:44:26.004Z,8.40
2019-05-19T15:46:51.889Z,9.20
2019-05-19T15:49:17.731Z,9.10
2019-05-19T15:51:59.028Z,8.47
2019-05-19T15:54:11.490Z,8.03
2019-05-19T15:56:37.399Z,8.33
2019-05-19T15:59:03.322Z,8.23
2019-05-19T16:01:29.189Z,7.07
2019-05-19T16:03:55.149Z,8.60
2019-05-19T16:06:20.986Z,9.10
2019-05-19T16:08:46.876Z,8.90
2019-05-19T16:11:12.743Z,9.57
2019-05-19T16:13:38.757Z,9.50
2019-05-19T16:16:04.706Z,8.20
2019-05-19T16:18:30.576Z,7.93
2019-05-19T16:20:56.420Z,10.10
2019-05-19T16:23:22.278Z,12.27
2019-05-19T16:25:48.150Z,12.27
2019-05-19T16:28:13.993Z,9.93
2019-05-19T16:30:39.885Z,14.00
2019-05-19T16:33:05.743Z,10.90
2019-05-19T16:35:31.601Z,8.17
2019-05-19T16:37:57.480Z,8.50
2019-05-19T16:40:23.407Z,8.00
2019-05-19T16:42:49.266Z,7.33
2019-05-19T16:45:15.729Z,6.97
2019-05-19T16:47:41.593Z,8.40
2019-05-19T16:50:07.775Z,7.67
2019-05-19T16:52:33.595Z,7.03
2019-05-19T16:55:18.238Z,7.30
2019-05-19T16:57:44.200Z,8.97
2019-05-19T17:00:10.594Z,10.80
2019-05-19T17:02:36.535Z,10.93
2019-05-19T17:05:04.299Z,10.77
2019-05-19T17:07:30.167Z,11.37
2019-05-19T17:09:56.032Z,11.80
2019-05-19T17:12:21.877Z,12.43
2019-05-19T17:14:49.219Z,11.27
2019-05-19T17:17:15.180Z,11.50
2019-05-19T17:19:41.099Z,12.83
2019-05-19T17:22:06.987Z,10.80
2019-05-19T17:24:32.832Z,10.67
2019-05-19T17:26:58.746Z,11.30
2019-05-19T17:29:24.649Z,9.27
2019-05-19T17:31:50.534Z,10.63
2019-05-19T17:34:16.393Z,11.70
2019-05-19T17:36:42.228Z,10.47
2019-05-19T17:39:08.076Z,10.50
2019-05-19T17:41:33.963Z,11.17
2019-05-19T17:43:59.814Z,10.93
2019-05-19T17:46:25.666Z,10.87
2019-05-19T17:48:51.529Z,9.90
2019-05-19T17:51:17.407Z,10.27
2019-05-19T17:53:43.394Z,11.57
2019-05-19T17:56:09.362Z,9.63
2019-05-19T17:58:35.319Z,12.87
2019-05-19T18:01:01.178Z,9.97
2019-05-19T18:03:27.482Z,8.57
2019-05-19T18:05:53.458Z,9.87
2019-05-19T18:08:19.358Z,10.67
2019-05-19T18:10:45.252Z,8.57
2019-05-19T18:13:11.224Z,9.17
2019-05-19T18:15:37.110Z,8.33
2019-05-19T18:18:02.999Z,8.37
2019-05-19T18:20:28.891Z,9.60
2019-05-19T18:22:54.789Z,7.60
2019-05-19T18:25:20.671Z,7.27
2019-05-19T18:27:46.531Z,8.10
2019-05-19T18:30:13.010Z,8.67
2019-05-19T18:32:38.893Z,7.60
2019-05-19T18:35:05.008Z,7.67
2019-05-19T18:37:30.959Z,8.10
2019-05-19T18:39:56.912Z,7.63
2019-05-19T18:42:22.820Z,10.40
2019-05-19T18:44:48.693Z,7.30
2019-05-19T18:47:14.550Z,7.73
2019-05-19T18:49:40.465Z,9.07
2019-05-19T18:52:06.332Z,9.50
2019-05-19T18:54:32.202Z,8.00
2019-05-19T18:56:59.273Z,7.40
2019-05-19T18:59:25.158Z,5.73
2019-05-19T19:01:51.033Z,6.47
2019-05-19T19:04:16.950Z,6.97
2019-05-19T19:06:42.809Z,7.37
2019-05-19T19:09:09.110Z,8.17
2019-05-19T19:11:35.093Z,7.50
2019-05-19T19:14:01.072Z,6.70
2019-05-19T19:16:27.338Z,8.17
2019-05-19T19:18:53.227Z,7.07
2019-05-19T19:21:19.133Z,8.57
2019-05-19T19:23:44.998Z,7.37
2019-05-19T19:26:12.944Z,7.80
2019-05-19T19:28:38.832Z,8.63
2019-05-19T19:31:04.705Z,8.57
2019-05-19T19:33:30.580Z,7.07
2019-05-19T19:35:56.462Z,6.40
2019-05-19T19:38:22.385Z,8.93
2019-05-19T19:40:48.241Z,7.20
2019-05-19T19:43:14.914Z,6.60
2019-05-19T19:45:40.762Z,7.73
2019-05-19T19:48:06.643Z,10.10
2019-05-19T19:50:33.245Z,6.13
2019-05-19T19:52:59.150Z,6.87
2019-05-19T19:55:25.233Z,6.90
2019-05-19T19:57:51.101Z,6.83
2019-05-19T20:00:35.377Z,6.73
2019-05-19T20:03:01.373Z,6.27
2019-05-19T20:05:27.232Z,7.07
2019-05-19T20:07:53.221Z,7.07
2019-05-19T20:10:19.098Z,6.80
2019-05-19T20:12:44.985Z,7.93
2019-05-19T20:15:14.112Z,7.00
2019-05-19T20:17:39.949Z,6.23
2019-05-19T20:20:05.917Z,7.40
2019-05-19T20:22:31.758Z,7.47
2019-05-19T20:24:57.610Z,6.53
2019-05-19T20:27:23.463Z,8.70
2019-05-19T20:29:49.307Z,6.47
2019-05-19T20:32:15.146Z,7.30
2019-05-19T20:34:41.029Z,6.77
2019-05-19T20:37:06.870Z,7.40
2019-05-19T20:39:32.729Z,7.70
2019-05-19T20:41:58.622Z,6.83
2019-05-19T20:44:24.617Z,7.57
2019-05-19T20:46:50.444Z,6.93
2019-05-19T20:49:16.278Z,8.03
2019-05-19T20:51:42.163Z,7.87
2019-05-19T20:54:08.013Z,7.10
2019-05-19T20:56:33.867Z,7.50
2019-05-19T20:58:59.729Z,8.17
2019-05-19T21:01:25.625Z,9.33
2019-05-19T21:03:51.432Z,9.60
2019-05-19T21:06:17.306Z,10.17
2019-05-19T21:08:43.158Z,8.13
2019-05-19T21:11:08.984Z,8.27
2019-05-19T21:13:34.835Z,8.87
2019-05-19T21:16:00.650Z,10.07
2019-05-19T21:18:26.491Z,9.53
2019-05-19T21:20:52.341Z,10.00
2019-05-19T21:23:18.202Z,9.17
2019-05-19T21:25:44.048Z,10.60
2019-05-19T21:28:09.915Z,10.33
2019-05-19T21:30:35.738Z,9.67
2019-05-19T21:33:01.731Z,8.17
2019-05-19T21:35:27.590Z,8.73
2019-05-19T21:37:53.456Z,12.03
2019-05-19T21:40:19.384Z,9.30
2019-05-19T21:42:45.250Z,9.50
2019-05-19T21:45:11.296Z,11.10
2019-05-19T21:47:37.157Z,10.60
2019-05-19T21:50:05.738Z,9.50
2019-05-19T21:52:31.638Z,9.77
2019-05-19T21:54:57.497Z,9.70
2019-05-19T21:57:23.340Z,9.60
2019-05-19T21:59:49.200Z,10.10
2019-05-19T22:02:15.142Z,9.90
2019-05-19T22:04:41.012Z,10.87
2019-05-19T22:07:08.774Z,10.53
2019-05-19T22:09:34.677Z,12.43
2019-05-19T22:12:00.518Z,10.53
2019-05-19T22:14:26.372Z,10.53
2019-05-19T22:16:52.235Z,11.47
2019-05-19T22:19:18.071Z,11.00
2019-05-19T22:21:43.924Z,11.90
2019-05-19T22:24:09.784Z,11.10
2019-05-19T22:26:35.658Z,11.50
2019-05-19T22:29:01.810Z,9.60
2019-05-19T22:31:36.631Z,9.90
2019-05-19T22:33:55.433Z,9.87
2019-05-19T22:36:21.295Z,12.17
2019-05-19T22:38:47.251Z,10.50
2019-05-19T22:41:13.113Z,14.07
2019-05-19T22:43:38.960Z,12.03
2019-05-19T22:46:04.825Z,11.93
2019-05-19T22:48:30.692Z,12.60
2019-05-19T22:50:56.553Z,13.83
2019-05-19T22:53:22.631Z,11.63
2019-05-19T22:55:48.500Z,12.60
2019-05-19T22:58:14.363Z,17.17
2019-05-19T23:00:40.220Z,12.50
2019-05-19T23:03:06.073Z,13.20
2019-05-19T23:05:31.915Z,11.63
2019-05-19T23:07:57.784Z,12.30
2019-05-19T23:10:23.615Z,12.37
2019-05-19T23:12:49.451Z,15.97
2019-05-19T23:15:16.317Z,13.27
2019-05-19T23:17:42.349Z,12.10
2019-05-19T23:20:08.934Z,12.40
2019-05-19T23:22:34.787Z,12.10
2019-05-19T23:25:00.666Z,12.73
2019-05-19T23:27:26.530Z,11.87
2019-05-19T23:29:52.390Z,12.50
2019-05-19T23:32:18.339Z,13.20
2019-05-19T23:34:44.193Z,12.50
2019-05-19T23:37:10.062Z,13.40
2019-05-19T23:39:35.932Z,13.77
2019-05-19T23:42:01.788Z,12.70
2019-05-19T23:44:27.684Z,12.20
2019-05-19T23:46:53.538Z,16.93
2019-05-19T23:49:19.380Z,12.73
2019-05-19T23:51:45.219Z,12.77
2019-05-19T23:54:11.070Z,11.50
2019-05-19T23:56:36.978Z,13.07
2019-05-19T23:59:02.955Z,11.70
